Time;durP1;ratioP1;P1;durP2;ratioP2;P2;SDS_P1;SDS_P2;PMS_P1;PMS_P2;Temp;Humidity;BMP_temperature;BMP_pressure;BME280_temperature;BME280_humidity;BME280_pressure;Samples;Min_cycle;Max_cycle;Signal;HPM_P1;HPM_P2
2023/03/27 00:05:06;;;;;;;1.60;0.93;;;4.20;99.90;;;;;;10440184;28;20274;-76
2023/03/27 00:10:28;;;;;;;2.93;0.73;;;4.20;99.90;;;;;;10440451;28;20206;-76
2023/03/27 00:15:50;;;;;;;3.40;1.03;;;4.30;99.90;;;;;;10421452;28;20217;-76
2023/03/27 00:21:11;;;;;;;2.80;1.30;;;4.30;99.90;;;;;;10427323;28;20202;-77
2023/03/27 00:26:32;;;;;;;6.00;1.53;;;4.20;99.90;;;;;;10439679;28;20228;-76
2023/03/27 00:31:53;;;;;;;1.40;0.80;;;4.20;99.90;;;;;;10439710;28;20222;-76
2023/03/27 00:37:15;;;;;;;4.40;1.10;;;4.20;99.90;;;;;;10439130;28;20198;-77
2023/03/27 00:42:36;;;;;;;2.40;1.07;;;4.10;99.90;;;;;;10438169;28;20230;-76
2023/03/27 00:48:06;;;;;;;2.47;1.23;;;4.10;99.90;;;;;;10438750;28;20205;-76
2023/03/27 00:53:28;;;;;;;2.63;1.00;;;4.10;99.90;;;;;;10438663;28;20276;-78
2023/03/27 00:58:54;;;;;;;3.03;0.90;;;4.10;99.90;;;;;;10423798;28;20245;-78
2023/03/27 01:04:20;;;;;;;1.63;1.53;;;4.00;99.90;;;;;;10436918;28;20403;-75
2023/03/27 01:09:41;;;;;;;0.80;0.67;;;3.90;99.90;;;;;;10437327;28;20195;-78
2023/03/27 01:15:36;;;;;;;3.33;0.87;;;3.90;99.90;;;;;;10436523;28;20230;-78
2023/03/27 01:21:04;;;;;;;1.07;0.70;;;3.80;99.90;;;;;;10409074;28;20490;-78
2023/03/27 01:26:52;;;;;;;1.43;0.80;;;3.80;99.90;;;;;;10388300;28;20250;-78
2023/03/27 01:32:28;;;;;;;1.47;0.80;;;3.80;99.90;;;;;;10367466;28;20244;-76
2023/03/27 01:38:08;;;;;;;1.13;0.80;;;3.70;99.90;;;;;;10395420;28;20201;-78
2023/03/27 01:43:59;;;;;;;4.10;1.43;;;3.70;99.90;;;;;;10395926;28;20633;-75
2023/03/27 01:49:27;;;;;;;2.13;0.90;;;3.70;99.90;;;;;;10394575;28;20200;-76
2023/03/27 01:54:54;;;;;;;2.47;1.27;;;3.70;99.90;;;;;;10380551;28;20223;-76
2023/03/27 02:00:20;;;;;;;3.17;1.50;;;3.80;99.90;;;;;;10366616;28;20274;-77
2023/03/27 02:05:50;;;;;;;2.90;1.20;;;3.70;99.90;;;;;;10420913;28;20494;-75
2023/03/27 02:11:11;;;;;;;1.60;0.90;;;3.80;99.90;;;;;;10436278;28;20195;-76
2023/03/27 02:16:36;;;;;;;1.57;0.90;;;3.80;99.90;;;;;;10425247;28;20231;-76
2023/03/27 02:21:57;;;;;;;2.50;1.50;;;3.70;99.90;;;;;;10429603;28;20200;-77
2023/03/27 02:27:44;;;;;;;4.00;1.60;;;3.60;99.90;;;;;;10443033;28;20207;-76
2023/03/27 02:33:40;;;;;;;3.97;1.50;;;3.60;99.90;;;;;;10429214;28;20293;-76
2023/03/27 02:39:11;;;;;;;2.57;0.83;;;3.60;99.90;;;;;;10443863;28;20508;-75
2023/03/27 02:44:50;;;;;;;1.87;1.10;;;3.50;99.90;;;;;;10442405;28;20234;-76
2023/03/27 02:50:25;;;;;;;1.47;1.10;;;3.50;99.90;;;;;;10442688;28;20515;-78
2023/03/27 02:55:58;;;;;;;2.80;1.00;;;3.40;99.90;;;;;;10429761;28;20226;-75
2023/03/27 03:01:21;;;;;;;2.03;1.10;;;3.40;99.90;;;;;;10427887;28;20202;-76
2023/03/27 03:07:05;;;;;;;1.53;0.97;;;3.30;99.90;;;;;;10441692;28;20206;-74
2023/03/27 03:12:27;;;;;;;1.60;1.00;;;3.30;99.90;;;;;;10441882;28;20226;-75
2023/03/27 03:17:48;;;;;;;3.80;1.00;;;3.40;99.90;;;;;;10409009;28;20202;-77
2023/03/27 03:23:09;;;;;;;1.53;0.93;;;3.40;99.90;;;;;;10441295;28;20260;-76
2023/03/27 03:28:34;;;;;;;1.37;1.23;;;3.30;99.90;;;;;;10426739;28;20427;-75
2023/03/27 03:33:55;;;;;;;1.03;0.90;;;3.30;99.90;;;;;;10440723;28;20230;-76
2023/03/27 03:39:17;;;;;;;1.70;0.97;;;3.30;99.90;;;;;;10440857;28;20539;-76
2023/03/27 03:44:41;;;;;;;1.27;1.10;;;3.30;99.90;;;;;;10426511;28;20288;-76
2023/03/27 03:50:11;;;;;;;1.67;1.10;;;3.30;99.90;;;;;;10440798;28;20195;-75
2023/03/27 03:55:32;;;;;;;1.00;0.90;;;3.40;99.90;;;;;;10440029;28;20471;-75
2023/03/27 04:00:53;;;;;;;1.30;1.00;;;3.30;99.90;;;;;;10439627;28;20496;-76
2023/03/27 04:06:29;;;;;;;1.37;1.20;;;3.30;99.90;;;;;;10439107;28;20210;-76
2023/03/27 04:11:52;;;;;;;4.17;1.40;;;3.30;99.90;;;;;;10439087;28;20459;-74
2023/03/27 04:17:32;;;;;;;1.33;1.20;;;3.20;99.90;;;;;;10413922;28;20216;-78
2023/03/27 04:22:56;;;;;;;1.53;1.40;;;3.30;99.90;;;;;;10386367;28;20199;-77
2023/03/27 04:28:20;;;;;;;2.23;1.30;;;3.30;99.90;;;;;;10438733;28;20486;-77
2023/03/27 04:33:51;;;;;;;3.33;1.60;;;3.30;99.90;;;;;;10438425;28;20298;-78
2023/03/27 04:39:16;;;;;;;2.57;1.60;;;3.30;99.90;;;;;;10439271;28;20198;-77
2023/03/27 04:44:37;;;;;;;2.20;1.67;;;3.40;99.90;;;;;;10423598;28;20243;-78
2023/03/27 04:49:59;;;;;;;2.40;1.63;;;3.40;99.90;;;;;;10437475;28;20214;-77
2023/03/27 04:55:24;;;;;;;3.10;1.70;;;3.50;99.90;;;;;;10409605;28;20248;-77
2023/03/27 05:00:49;;;;;;;10.40;2.77;;;3.50;99.90;;;;;;10423509;28;20203;-77
2023/03/27 05:06:31;;;;;;;3.60;2.20;;;3.50;99.90;;;;;;10405208;28;20210;-77
2023/03/27 05:11:54;;;;;;;4.77;2.33;;;3.40;99.90;;;;;;10396088;28;20580;-76
2023/03/27 05:17:15;;;;;;;5.27;3.00;;;3.20;99.90;;;;;;10414052;28;20202;-77
2023/03/27 05:22:40;;;;;;;2.80;1.83;;;2.90;99.90;;;;;;10395843;28;20198;-77
2023/03/27 05:28:11;;;;;;;2.37;1.20;;;2.80;99.90;;;;;;10436589;28;20429;-77
2023/03/27 05:33:34;;;;;;;3.23;1.90;;;2.70;99.90;;;;;;10437286;28;20248;-76
2023/03/27 05:38:56;;;;;;;4.23;2.30;;;2.60;99.90;;;;;;10435814;28;20191;-77
2023/03/27 05:44:24;;;;;;;3.30;1.83;;;2.70;99.90;;;;;;10435769;28;20233;-77
2023/03/27 05:49:45;;;;;;;1.60;1.17;;;2.70;99.90;;;;;;10436654;28;20204;-77
2023/03/27 05:55:09;;;;;;;3.00;1.63;;;2.80;99.90;;;;;;10435285;28;20429;-77
2023/03/27 06:00:33;;;;;;;4.10;2.50;;;2.80;99.90;;;;;;10434689;28;20191;-77
2023/03/27 06:06:00;;;;;;;5.60;3.00;;;2.90;99.90;;;;;;10435336;28;20209;-77
2023/03/27 06:11:27;;;;;;;8.17;3.70;;;3.00;99.90;;;;;;10434993;28;20219;-76
2023/03/27 06:16:50;;;;;;;5.03;2.40;;;3.20;99.90;;;;;;10423121;28;20273;-77
2023/03/27 06:22:30;;;;;;;7.20;3.80;;;3.40;99.90;;;;;;10434649;28;20455;-77
2023/03/27 06:27:56;;;;;;;4.70;3.27;;;3.30;99.90;;;;;;10393847;28;20488;-77
2023/03/27 06:33:17;;;;;;;5.83;3.00;;;3.10;99.90;;;;;;10407657;28;20226;-77
2023/03/27 06:38:40;;;;;;;2.07;1.70;;;3.00;99.90;;;;;;10379296;28;20206;-76
2023/03/27 06:44:02;;;;;;;8.13;4.07;;;2.90;99.90;;;;;;10407313;28;20242;-78
2023/03/27 06:49:47;;;;;;;6.23;3.70;;;3.00;99.90;;;;;;10394257;28;20210;-77
2023/03/27 06:55:16;;;;;;;3.70;2.13;;;2.90;99.90;;;;;;10393162;28;20247;-78
2023/03/27 07:00:45;;;;;;;11.60;5.90;;;2.80;99.90;;;;;;10392830;28;20207;-78
2023/03/27 07:06:27;;;;;;;14.70;6.23;;;3.00;99.90;;;;;;10430782;28;20334;-77
2023/03/27 07:11:59;;;;;;;4.07;1.90;;;3.30;99.90;;;;;;10405846;28;20248;-78
2023/03/27 07:17:20;;;;;;;2.77;1.70;;;3.20;99.90;;;;;;10424149;28;20209;-77
2023/03/27 07:22:49;;;;;;;2.17;1.63;;;2.80;99.90;;;;;;10383801;28;20230;-79
2023/03/27 07:28:39;;;;;;;3.50;2.50;;;2.70;99.90;;;;;;10417045;28;20312;-88
2023/03/27 07:34:04;;;;;;;3.07;2.20;;;2.70;99.90;;;;;;10384611;28;20265;-77
2023/03/27 07:39:57;;;;;;;3.87;2.60;;;2.80;99.90;;;;;;10372052;28;20352;-78
2023/03/27 07:45:22;;;;;;;4.80;2.50;;;2.70;99.90;;;;;;10355371;28;20264;-78
2023/03/27 07:50:49;;;;;;;5.83;4.00;;;2.70;99.90;;;;;;10341060;28;20205;-78
2023/03/27 07:56:12;;;;;;;5.67;4.10;;;2.70;99.90;;;;;;10365672;28;20248;-78
2023/03/27 08:01:36;;;;;;;8.20;4.53;;;2.90;99.90;;;;;;10324143;28;20329;-80
2023/03/27 08:06:59;;;;;;;4.70;3.40;;;3.10;99.90;;;;;;10354911;28;20223;-78
2023/03/27 08:12:20;;;;;;;15.37;7.07;;;3.40;99.90;;;;;;10371310;28;20249;-79
2023/03/27 08:17:53;;;;;;;8.10;4.17;;;3.60;99.90;;;;;;10424464;28;20730;-78
2023/03/27 08:23:18;;;;;;;4.57;3.03;;;3.60;99.90;;;;;;10422393;28;20205;-78
2023/03/27 08:28:58;;;;;;;4.97;3.10;;;3.40;99.90;;;;;;10436627;28;20221;-80
2023/03/27 08:34:22;;;;;;;3.03;1.90;;;3.40;99.90;;;;;;10406779;28;20242;-78
2023/03/27 08:39:45;;;;;;;5.23;2.90;;;3.30;99.90;;;;;;10393970;28;20264;-79
2023/03/27 08:45:18;;;;;;;2.30;1.37;;;3.80;99.90;;;;;;10409588;28;20253;-79
2023/03/27 08:50:48;;;;;;;8.27;4.70;;;4.20;99.90;;;;;;10411406;28;20203;-79
2023/03/27 08:56:16;;;;;;;6.00;3.77;;;4.80;98.10;;;;;;10407344;28;20245;-80
2023/03/27 09:01:55;;;;;;;13.43;6.63;;;5.30;97.70;;;;;;10399756;28;20284;-78
2023/03/27 09:07:38;;;;;;;8.10;3.30;;;7.00;94.90;;;;;;10424336;28;20240;-79
2023/03/27 09:13:36;;;;;;;3.47;2.50;;;8.10;50.90;;;;;;10402254;28;20503;-79
2023/03/27 09:19:11;;;;;;;1.40;1.00;;;7.00;52.40;;;;;;10427655;28;20555;-79
2023/03/27 09:24:39;;;;;;;4.93;3.00;;;7.50;37.60;;;;;;10411415;28;20210;-79
2023/03/27 09:30:33;;;;;;;2.03;1.03;;;8.30;34.60;;;;;;10466337;28;20219;-81
2023/03/27 09:35:59;;;;;;;2.07;1.37;;;6.70;37.60;;;;;;10459161;28;20235;-79
2023/03/27 09:41:30;;;;;;;3.30;1.70;;;5.90;51.40;;;;;;10437274;28;20267;-79
2023/03/27 09:46:59;;;;;;;4.20;2.27;;;5.80;50.40;;;;;;10443773;28;20222;-79
2023/03/27 09:52:42;;;;;;;2.90;1.70;;;5.40;53.00;;;;;;10451126;28;20283;-79
2023/03/27 09:58:24;;;;;;;17.37;7.63;;;4.90;82.40;;;;;;10451304;28;20304;-79
2023/03/27 10:03:52;;;;;;;18.97;8.73;;;4.60;96.20;;;;;;10453214;28;20302;-78
2023/03/27 10:09:36;;;;;;;4.10;2.23;;;4.60;96.80;;;;;;10424265;28;20270;-79
2023/03/27 10:15:02;;;;;;;8.73;3.70;;;4.40;93.50;;;;;;10403791;28;20234;-78
2023/03/27 10:20:24;;;;;;;4.87;2.57;;;4.20;93.70;;;;;;10425624;28;20288;-78
2023/03/27 10:25:50;;;;;;;5.40;2.63;;;4.00;97.80;;;;;;10394812;28;20418;-77
2023/03/27 10:31:53;;;;;;;10.17;5.20;;;3.90;95.80;;;;;;10384785;28;20445;-79
2023/03/27 10:37:40;;;;;;;28.03;12.10;;;3.70;96.50;;;;;;10404847;28;22950;-78
2023/03/27 10:43:36;;;;;;;7.50;4.23;;;4.10;96.80;;;;;;10400630;28;20402;-78
2023/03/27 10:49:06;;;;;;;8.93;4.97;;;4.80;89.70;;;;;;10392308;28;20202;-83
2023/03/27 10:54:46;;;;;;;4.30;2.50;;;5.00;93.10;;;;;;10406685;28;20453;-83
2023/03/27 11:00:31;;;;;;;3.80;2.07;;;5.20;69.30;;;;;;10403000;28;20211;-78
2023/03/27 11:05:59;;;;;;;4.33;1.90;;;5.10;60.10;;;;;;10391147;28;20241;-83
2023/03/27 11:11:26;;;;;;;3.70;2.03;;;4.30;87.20;;;;;;10439976;28;20214;-77
2023/03/27 11:17:02;;;;;;;4.57;2.23;;;3.90;91.60;;;;;;10427136;28;20287;-80
2023/03/27 11:23:30;;;;;;;7.27;2.67;;;3.70;84.40;;;;;;10458034;28;20210;-79
2023/03/27 11:29:34;;;;;;;3.57;1.63;;;3.70;86.20;;;;;;10289893;28;20208;-76
2023/03/27 11:35:02;;;;;;;3.97;2.10;;;3.50;78.50;;;;;;10284101;28;20346;-82
2023/03/27 11:40:46;;;;;;;4.83;2.33;;;4.00;57.60;;;;;;10276757;28;20215;-78
2023/03/27 11:46:32;;;;;;;4.80;1.97;;;4.00;63.30;;;;;;10296410;28;20310;-78
2023/03/27 11:52:31;;;;;;;2.00;1.10;;;4.00;56.20;;;;;;10280450;28;20239;-77
2023/03/27 11:58:16;;;;;;;8.67;3.87;;;4.10;53.90;;;;;;10281922;28;20248;-78
2023/03/27 12:03:52;;;;;;;4.80;2.30;;;4.10;62.60;;;;;;10328908;28;20217;-75
2023/03/27 12:09:41;;;;;;;4.23;2.00;;;3.70;82.90;;;;;;10419018;28;20240;-77
2023/03/27 12:15:58;;;;;;;7.97;2.90;;;3.90;57.20;;;;;;10415723;28;20238;-78
2023/03/27 12:22:09;;;;;;;132.97;46.80;;;4.70;38.50;;;;;;10392613;28;20207;-82
2023/03/27 12:28:17;;;;;;;9.10;4.73;;;4.70;28.40;;;;;;10401129;28;20221;-77
2023/03/27 12:34:16;;;;;;;6.13;3.03;;;4.10;32.60;;;;;;10391790;28;20235;-77
2023/03/27 12:39:50;;;;;;;3.13;1.80;;;4.00;37.30;;;;;;10422197;28;20377;-77
2023/03/27 12:45:18;;;;;;;2.33;1.60;;;3.80;42.70;;;;;;10405918;28;20248;-79
2023/03/27 12:50:43;;;;;;;18.77;7.93;;;3.80;37.10;;;;;;10410705;28;20258;-76
2023/03/27 12:56:17;;;;;;;7.90;5.00;;;4.20;41.30;;;;;;10440043;28;20409;-74
2023/03/27 13:01:51;;;;;;;4.40;1.97;;;3.90;36.70;;;;;;10429655;28;20215;-85
2023/03/27 13:07:26;;;;;;;14.97;4.70;;;3.60;41.80;;;;;;10399608;28;20428;-78
2023/03/27 13:13:11;;;;;;;11.27;4.43;;;3.30;43.10;;;;;;10421142;28;20584;-78
2023/03/27 13:18:48;;;;;;;6.97;3.00;;;3.90;37.60;;;;;;10399789;28;20504;-85
2023/03/27 13:24:18;;;;;;;11.83;5.00;;;4.00;33.60;;;;;;10418345;28;20320;-81
2023/03/27 13:29:40;;;;;;;4.67;1.87;;;4.00;35.70;;;;;;10420765;28;20201;-80
2023/03/27 13:35:21;;;;;;;6.07;3.67;;;4.10;35.60;;;;;;10394050;28;20244;-80
2023/03/27 13:40:48;;;;;;;4.73;3.40;;;4.40;38.50;;;;;;10391483;28;20254;-82
2023/03/27 13:46:17;;;;;;;3.80;2.20;;;4.00;41.90;;;;;;10405163;28;20212;-79
2023/03/27 13:52:42;;;;;;;6.73;2.50;;;3.40;50.30;;;;;;10434525;28;20503;-77
2023/03/27 13:58:27;;;;;;;4.13;1.57;;;3.70;40.90;;;;;;10415636;28;20219;-81
2023/03/27 14:04:17;;;;;;;2.17;1.60;;;3.60;45.10;;;;;;10435427;28;20292;-76
2023/03/27 14:10:09;;;;;;;3.73;1.90;;;3.50;46.30;;;;;;10399009;28;20205;-77
2023/03/27 14:15:42;;;;;;;2.60;1.60;;;3.50;42.00;;;;;;10434440;28;20549;-81
2023/03/27 14:21:22;;;;;;;13.37;3.20;;;3.60;40.90;;;;;;10425006;28;20205;-86
2023/03/27 14:26:48;;;;;;;10.07;2.90;;;3.60;38.70;;;;;;10411434;28;20241;-83
2023/03/27 14:32:14;;;;;;;5.60;2.70;;;3.70;39.50;;;;;;10431129;28;20213;-78
2023/03/27 14:37:40;;;;;;;5.00;2.90;;;3.80;38.60;;;;;;10440039;28;20202;-79
2023/03/27 14:43:21;;;;;;;3.57;2.00;;;3.90;30.40;;;;;;10458146;28;20609;-78
2023/03/27 14:48:53;;;;;;;4.43;2.07;;;3.70;27.20;;;;;;10433833;28;20222;-79
2023/03/27 14:54:25;;;;;;;3.73;1.73;;;3.50;23.20;;;;;;10438210;28;20225;-83
2023/03/27 14:59:55;;;;;;;4.57;1.30;;;3.30;24.30;;;;;;10424775;28;20241;-77
2023/03/27 15:05:18;;;;;;;7.23;2.53;;;3.20;24.40;;;;;;10434127;28;20221;-77
2023/03/27 15:10:50;;;;;;;6.30;2.07;;;3.10;24.50;;;;;;10454066;28;20239;-76
2023/03/27 15:16:34;;;;;;;5.63;1.70;;;3.00;22.60;;;;;;10428288;28;20541;-75
2023/03/27 15:22:06;;;;;;;1.77;1.07;;;3.00;22.80;;;;;;10458576;28;20198;-76
2023/03/27 15:27:31;;;;;;;3.30;1.77;;;3.20;22.80;;;;;;10417994;28;20277;-77
2023/03/27 15:32:55;;;;;;;3.07;1.77;;;3.20;23.20;;;;;;10454313;28;20204;-79
2023/03/27 15:38:24;;;;;;;4.10;1.80;;;3.20;23.80;;;;;;10440610;28;20201;-78
2023/03/27 15:43:45;;;;;;;6.70;5.13;;;3.20;22.50;;;;;;10455412;28;20223;-77
2023/03/27 15:49:27;;;;;;;4.00;2.87;;;3.00;18.50;;;;;;10415691;28;20552;-77
2023/03/27 15:54:53;;;;;;;12.77;2.70;;;2.90;17.00;;;;;;10440255;28;20520;-77
2023/03/27 16:00:15;;;;;;;9.50;3.07;;;2.80;17.70;;;;;;10454882;28;20219;-74
2023/03/27 16:05:41;;;;;;;3.57;1.83;;;2.70;18.50;;;;;;10466526;28;20205;-77
2023/03/27 16:11:03;;;;;;;10.80;2.43;;;2.50;18.30;;;;;;10442901;28;20197;-77
2023/03/27 16:16:30;;;;;;;7.80;3.17;;;2.50;19.20;;;;;;10431516;28;20222;-78
2023/03/27 16:21:55;;;;;;;7.23;3.50;;;2.50;20.30;;;;;;10461856;28;20196;-77
2023/03/27 16:27:21;;;;;;;8.37;3.87;;;2.50;20.40;;;;;;10481167;28;20275;-76
2023/03/27 16:32:42;;;;;;;14.37;4.10;;;2.40;20.00;;;;;;10470509;28;20230;-76
2023/03/27 16:38:03;;;;;;;2.13;1.50;;;2.40;20.30;;;;;;10479690;28;20219;-76
2023/03/27 16:43:24;;;;;;;9.80;4.63;;;2.20;19.70;;;;;;10454244;28;20308;-77
2023/03/27 16:48:45;;;;;;;5.17;2.93;;;2.30;21.50;;;;;;10439001;28;20263;-77
2023/03/27 16:54:06;;;;;;;7.10;4.40;;;2.10;21.20;;;;;;10466892;28;20254;-76
2023/03/27 16:59:27;;;;;;;14.33;6.10;;;2.10;22.90;;;;;;10478739;28;20242;-76
2023/03/27 17:04:48;;;;;;;22.53;8.07;;;2.20;23.40;;;;;;10464366;28;20206;-77
2023/03/27 17:10:10;;;;;;;23.57;9.67;;;2.10;24.40;;;;;;10460688;28;20266;-77
2023/03/27 17:15:35;;;;;;;24.33;10.37;;;2.20;25.10;;;;;;10475925;28;20246;-78
2023/03/27 17:21:15;;;;;;;20.60;8.40;;;2.20;26.70;;;;;;10442123;28;20222;-77
2023/03/27 17:26:37;;;;;;;16.03;7.90;;;2.30;27.60;;;;;;10478113;28;20196;-76
2023/03/27 17:32:00;;;;;;;12.80;7.00;;;2.30;28.00;;;;;;10468573;28;20201;-77
2023/03/27 17:37:22;;;;;;;19.13;10.50;;;2.20;29.00;;;;;;10478159;28;20221;-77
2023/03/27 17:42:43;;;;;;;26.37;15.97;;;2.20;30.20;;;;;;10468377;28;20234;-77
2023/03/27 17:48:11;;;;;;;21.47;13.37;;;2.20;34.00;;;;;;10435915;28;20198;-78
2023/03/27 17:53:33;;;;;;;9.07;5.87;;;2.20;35.60;;;;;;10458852;28;20284;-77
2023/03/27 17:58:54;;;;;;;7.73;4.40;;;2.20;37.00;;;;;;10477516;28;20245;-77
2023/03/27 18:04:16;;;;;;;5.23;3.47;;;2.20;40.00;;;;;;10438638;28;20201;-77
2023/03/27 18:09:37;;;;;;;5.87;3.73;;;2.20;42.40;;;;;;10435019;28;20206;-76
2023/03/27 18:14:59;;;;;;;23.57;10.47;;;2.20;42.80;;;;;;10472503;28;20230;-76
2023/03/27 18:20:20;;;;;;;24.10;10.93;;;2.10;41.60;;;;;;10394719;28;20236;-77
2023/03/27 18:25:41;;;;;;;16.70;8.73;;;2.00;49.40;;;;;;10477093;28;20201;-76
2023/03/27 18:31:08;;;;;;;23.17;10.33;;;2.00;49.10;;;;;;10470130;28;20198;-77
2023/03/27 18:36:29;;;;;;;18.07;9.37;;;2.00;55.80;;;;;;10437884;28;20570;-79
2023/03/27 18:41:51;;;;;;;22.17;9.63;;;2.00;53.90;;;;;;10470382;28;20535;-77
2023/03/27 18:47:12;;;;;;;23.20;12.30;;;1.90;46.50;;;;;;10466513;28;20194;-77
2023/03/27 18:52:33;;;;;;;23.53;13.53;;;1.80;47.00;;;;;;10467086;28;20242;-78
2023/03/27 18:57:54;;;;;;;22.23;13.13;;;1.80;52.10;;;;;;10469688;28;20270;-78
2023/03/27 19:03:17;;;;;;;26.33;14.20;;;1.70;47.70;;;;;;10476425;28;20193;-76
2023/03/27 19:08:41;;;;;;;74.50;28.43;;;1.70;55.70;;;;;;10472975;28;20213;-78
2023/03/27 19:14:02;;;;;;;170.50;67.27;;;1.60;72.40;;;;;;10442093;28;20384;-78
2023/03/27 19:19:46;;;;;;;165.27;71.20;;;1.40;84.90;;;;;;10440015;28;20204;-79
2023/03/27 19:25:34;;;;;;;76.30;36.13;;;1.30;88.20;;;;;;10310975;28;20220;-78
2023/03/27 19:30:55;;;;;;;65.03;31.07;;;1.10;91.10;;;;;;10316332;28;20203;-77
2023/03/27 19:36:16;;;;;;;62.13;26.60;;;1.10;92.90;;;;;;10310383;28;20599;-78
2023/03/27 19:41:37;;;;;;;70.77;33.83;;;1.00;93.40;;;;;;10315889;28;20536;-76
2023/03/27 19:46:59;;;;;;;62.23;26.07;;;1.10;99.90;;;;;;10306265;28;20232;-77
2023/03/27 19:52:21;;;;;;;47.00;23.97;;;1.10;99.90;;;;;;10315935;28;20367;-78
2023/03/27 19:57:42;;;;;;;44.60;22.23;;;1.00;99.90;;;;;;10287324;28;20232;-77
2023/03/27 20:03:08;;;;;;;42.10;22.47;;;1.10;99.90;;;;;;10444869;28;20205;-78
2023/03/27 20:08:32;;;;;;;32.13;18.93;;;1.00;99.90;;;;;;10462091;28;20202;-75
2023/03/27 20:13:53;;;;;;;31.20;15.23;;;1.00;99.90;;;;;;10438726;28;20218;-77
2023/03/27 20:19:16;;;;;;;57.37;22.83;;;1.10;99.90;;;;;;10407340;28;20202;-76
2023/03/27 20:24:39;;;;;;;58.87;25.27;;;1.10;99.80;;;;;;10481057;28;20554;-75
2023/03/27 20:30:00;;;;;;;79.13;34.80;;;1.00;99.90;;;;;;10474927;28;20204;-75
2023/03/27 20:35:23;;;;;;;74.20;31.47;;;1.00;99.90;;;;;;10442977;28;20324;-78
2023/03/27 20:40:49;;;;;;;71.33;30.67;;;0.90;99.20;;;;;;10438039;28;20192;-76
2023/03/27 20:46:15;;;;;;;91.67;39.03;;;1.00;99.90;;;;;;10438267;28;20206;-76
2023/03/27 20:51:36;;;;;;;115.63;39.17;;;0.80;99.90;;;;;;10433864;28;20205;-76
2023/03/27 20:56:57;;;;;;;94.93;34.83;;;0.80;99.90;;;;;;10464817;28;20302;-76
2023/03/27 21:02:19;;;;;;;53.17;22.97;;;0.70;97.70;;;;;;10479925;28;20195;-75
2023/03/27 21:07:49;;;;;;;26.47;13.47;;;0.70;96.80;;;;;;10443524;28;20380;-76
2023/03/27 21:13:11;;;;;;;18.97;9.17;;;0.70;98.40;;;;;;10438181;28;20421;-75
2023/03/27 21:18:32;;;;;;;18.33;9.10;;;0.70;99.90;;;;;;10437626;28;20207;-75
2023/03/27 21:23:53;;;;;;;14.37;6.67;;;0.70;99.90;;;;;;10486970;28;20223;-75
2023/03/27 21:29:14;;;;;;;16.80;8.13;;;0.70;99.90;;;;;;10478539;28;20214;-76
2023/03/27 21:34:35;;;;;;;22.00;9.87;;;0.70;99.90;;;;;;10468938;28;20231;-77
2023/03/27 21:39:57;;;;;;;18.33;10.70;;;0.70;99.90;;;;;;10433778;28;20241;-76
2023/03/27 21:45:18;;;;;;;22.30;10.77;;;0.80;99.90;;;;;;10435664;28;20412;-78
2023/03/27 21:50:39;;;;;;;14.37;7.83;;;0.80;99.90;;;;;;10433181;28;20234;-78
2023/03/27 21:56:01;;;;;;;10.83;5.77;;;0.80;99.90;;;;;;10469281;28;20227;-77
2023/03/27 22:01:23;;;;;;;9.37;5.70;;;0.80;99.90;;;;;;10477658;28;20192;-79
2023/03/27 22:06:44;;;;;;;9.80;5.47;;;0.70;99.90;;;;;;10468047;28;20204;-77
2023/03/27 22:12:05;;;;;;;13.93;6.47;;;0.90;99.90;;;;;;10446307;28;20260;-77
2023/03/27 22:17:26;;;;;;;12.37;6.20;;;0.80;99.90;;;;;;10435696;28;20518;-77
2023/03/27 22:22:47;;;;;;;11.83;6.10;;;0.90;99.90;;;;;;10456875;28;20581;-77
2023/03/27 22:28:08;;;;;;;18.20;7.63;;;0.90;99.90;;;;;;10450176;28;20287;-78
2023/03/27 22:33:30;;;;;;;15.67;7.90;;;0.90;99.90;;;;;;10476874;28;20293;-79
2023/03/27 22:38:51;;;;;;;24.27;8.53;;;1.00;99.90;;;;;;10471309;28;20208;-78
2023/03/27 22:44:13;;;;;;;16.53;7.63;;;1.00;99.90;;;;;;10484481;28;20228;-78
2023/03/27 22:49:35;;;;;;;11.03;5.37;;;0.90;99.90;;;;;;10468456;28;20203;-73
2023/03/27 22:54:56;;;;;;;10.10;5.30;;;1.00;99.90;;;;;;10438642;28;20368;-75
2023/03/27 23:00:17;;;;;;;16.67;8.20;;;1.00;99.90;;;;;;10442626;28;20430;-76
2023/03/27 23:05:39;;;;;;;41.67;15.20;;;1.00;99.90;;;;;;10444221;28;20231;-79
2023/03/27 23:11:04;;;;;;;38.83;15.73;;;1.00;99.90;;;;;;10461723;28;20200;-74
2023/03/27 23:16:26;;;;;;;23.67;12.10;;;1.00;99.90;;;;;;10433204;28;20228;-74
2023/03/27 23:21:47;;;;;;;19.03;10.57;;;1.00;99.90;;;;;;10437342;28;20205;-76
2023/03/27 23:27:08;;;;;;;15.63;7.20;;;1.00;99.90;;;;;;10483529;28;20322;-75
2023/03/27 23:32:32;;;;;;;11.23;6.40;;;1.10;99.90;;;;;;10483259;28;20229;-77
2023/03/27 23:37:53;;;;;;;12.10;5.93;;;1.00;99.90;;;;;;10472956;28;20274;-77
2023/03/27 23:43:14;;;;;;;8.40;4.33;;;1.00;99.90;;;;;;10481695;28;20239;-77
2023/03/27 23:48:36;;;;;;;8.73;4.37;;;1.00;99.90;;;;;;10481033;28;20188;-74
2023/03/27 23:53:57;;;;;;;8.67;4.73;;;1.00;99.90;;;;;;10479409;28;20215;-75
2023/03/27 23:59:18;;;;;;;6.97;4.27;;;1.10;99.90;;;;;;10482470;28;20495;-80
